Accueil
METAR-TAF:

METAR-TAF

Aéroports :

Sion, Suisse

Aéroport de Sion

latitude: 46-13-11N, longitude: 007-19-36E, altitude: 483 m

Observation

Le bulletin a été fait il y a 48 minutes, à 12:50 UTC
Vent 15 kt de ouest/sud-ouest, variant entre sud/sud-ouest et ouest
Température 12°C
Humidité 50%
Pression 1019 hPa
Visibilité 10 km ou plus
Nuages épars à une hauteur de 3000 ft
Nuages fragmentés à une hauteur de 7000 ft

METAR: LSMS 221250Z 24015KT 210V270 9999 SCT030 BKN070 12/02 Q1019 RMK BLU

Heure: 15:38 (13:38 UTC)


TAF: absent

Observations et prévisions météorologiques de plus de 4000 aéroports (messages METAR et TAF).

Les stations disponibles sont représentées par des disques jaunes et rouges sur la carte.

Passer la souris dessus pour voir le nom de la station.

Cliquer dessus pour voir les observations et prévisions météorologiques.

Pour changer de carte: cliquez sur les boutons verts avec une croix noire pour zoomer, sur le bouton vert avec un tiret pour effectuer un zoom arrière, ou sur les flèches vertes pour les cartes adjacentes.


METAR-TAF: